Time;durP1;ratioP1;P1;durP2;ratioP2;P2;SDS_P1;SDS_P2;PMS_P1;PMS_P2;Temp;Humidity;BMP_temperature;BMP_pressure;BME280_temperature;BME280_humidity;BME280_pressure;Samples;Min_cycle;Max_cycle;Signal;HPM_P1;HPM_P2
2022/07/10 00:00:28;;;;;;;5.45;2.47;;;;;;;;;;4983108;28;20045;-90
2022/07/10 00:02:53;;;;;;;5.90;2.28;;;;;;;;;;4986380;28;20421;-90
2022/07/10 00:05:19;;;;;;;4.10;1.88;;;;;;;;;;4987744;28;20497;-90
2022/07/10 00:07:45;;;;;;;5.97;2.40;;;;;;;;;;4993333;28;20642;-85
2022/07/10 00:10:10;;;;;;;6.68;2.78;;;;;;;;;;4984855;28;20493;-87
2022/07/10 00:12:36;;;;;;;3.97;2.17;;;;;;;;;;4985856;28;20045;-86
2022/07/10 00:15:03;;;;;;;4.70;2.10;;;;;;;;;;4986760;28;20163;-85
2022/07/10 00:17:29;;;;;;;4.47;2.33;;;;;;;;;;4984616;28;20030;-86
2022/07/10 00:19:54;;;;;;;6.28;2.60;;;;;;;;;;4986218;28;20027;-87
2022/07/10 00:22:19;;;;;;;8.43;2.47;;;;;;;;;;4985318;28;20038;-86
2022/07/10 00:24:45;;;;;;;5.97;2.38;;;;;;;;;;4982250;28;20070;-87
2022/07/10 00:27:10;;;;;;;5.28;2.40;;;;;;;;;;4991123;28;20104;-84
2022/07/10 00:29:35;;;;;;;4.70;2.28;;;;;;;;;;4985261;28;20082;-88
2022/07/10 00:32:01;;;;;;;8.90;2.88;;;;;;;;;;4991098;28;20065;-85
2022/07/10 00:34:26;;;;;;;5.20;2.25;;;;;;;;;;4984922;28;20062;-87
2022/07/10 00:36:51;;;;;;;7.40;2.53;;;;;;;;;;4992118;28;20105;-88
2022/07/10 00:39:17;;;;;;;2.35;2.10;;;;;;;;;;5003633;28;20046;-89
2022/07/10 00:41:42;;;;;;;8.55;2.30;;;;;;;;;;4989157;28;20042;-90
2022/07/10 00:44:07;;;;;;;4.32;2.50;;;;;;;;;;4989386;28;20030;-90
2022/07/10 00:46:33;;;;;;;4.95;2.33;;;;;;;;;;4990566;28;20030;-89
2022/07/10 00:48:58;;;;;;;6.05;2.40;;;;;;;;;;4989354;28;20051;-88
2022/07/10 00:51:26;;;;;;;5.30;2.58;;;;;;;;;;4988316;28;20530;-87
2022/07/10 00:53:52;;;;;;;6.18;2.50;;;;;;;;;;4989419;28;20038;-89
2022/07/10 00:56:22;;;;;;;4.07;2.30;;;;;;;;;;4992369;28;20049;-88
2022/07/10 00:58:48;;;;;;;5.95;2.38;;;;;;;;;;4998650;28;20525;-86
2022/07/10 01:01:13;;;;;;;4.70;2.80;;;;;;;;;;4990470;28;20057;-88
2022/07/10 01:03:39;;;;;;;5.82;2.45;;;;;;;;;;4982231;28;20518;-86
2022/07/10 01:06:05;;;;;;;6.28;2.67;;;;;;;;;;4986882;28;20479;-87
2022/07/10 01:08:30;;;;;;;9.15;2.63;;;;;;;;;;4986783;28;20088;-88
2022/07/10 01:10:55;;;;;;;12.60;3.03;;;;;;;;;;4989134;28;20109;-88
2022/07/10 01:13:21;;;;;;;4.05;2.60;;;;;;;;;;4990903;28;22037;-89
2022/07/10 01:15:47;;;;;;;4.28;2.30;;;;;;;;;;4980571;28;20047;-87
2022/07/10 01:18:14;;;;;;;5.68;2.50;;;;;;;;;;4987558;28;20034;-89
2022/07/10 01:20:40;;;;;;;5.28;2.70;;;;;;;;;;4986493;28;20027;-88
2022/07/10 01:23:06;;;;;;;10.88;2.85;;;;;;;;;;4986269;28;20537;-86
2022/07/10 01:25:31;;;;;;;6.78;2.28;;;;;;;;;;4988379;28;20121;-88
2022/07/10 01:27:58;;;;;;;6.80;2.25;;;;;;;;;;4983519;28;20038;-88
2022/07/10 01:30:24;;;;;;;6.78;2.38;;;;;;;;;;4988105;28;20054;-88
2022/07/10 01:32:50;;;;;;;9.18;2.92;;;;;;;;;;4989155;28;20038;-88
2022/07/10 01:35:16;;;;;;;9.38;2.90;;;;;;;;;;4998955;28;20029;-87
2022/07/10 01:37:41;;;;;;;5.72;2.55;;;;;;;;;;4987304;28;20173;-87
2022/07/10 01:40:08;;;;;;;6.20;2.67;;;;;;;;;;4988030;28;20050;-87
2022/07/10 01:42:33;;;;;;;5.38;3.10;;;;;;;;;;4993026;28;20031;-89
2022/07/10 01:44:59;;;;;;;6.03;2.33;;;;;;;;;;4991096;28;20026;-87
2022/07/10 01:47:25;;;;;;;10.80;3.22;;;;;;;;;;4993879;28;20018;-86
2022/07/10 01:49:55;;;;;;;6.45;2.70;;;;;;;;;;4989138;28;20457;-88
2022/07/10 01:52:20;;;;;;;7.10;2.58;;;;;;;;;;4991686;28;20037;-88
2022/07/10 01:54:47;;;;;;;8.00;2.60;;;;;;;;;;4993045;28;20113;-89
2022/07/10 01:57:13;;;;;;;5.43;2.75;;;;;;;;;;4990951;28;20105;-88
2022/07/10 01:59:39;;;;;;;8.80;2.80;;;;;;;;;;5011656;28;20030;-88
2022/07/10 02:02:04;;;;;;;8.82;2.88;;;;;;;;;;4991805;28;20034;-87
2022/07/10 02:04:42;;;;;;;4.75;2.60;;;;;;;;;;4985115;28;20054;-87
2022/07/10 02:07:12;;;;;;;5.35;2.47;;;;;;;;;;5006635;28;20049;-88
2022/07/10 02:09:41;;;;;;;2.88;2.33;;;;;;;;;;5008117;28;20074;-89
2022/07/10 02:12:12;;;;;;;4.85;2.47;;;;;;;;;;4982187;28;20121;-87
2022/07/10 02:14:38;;;;;;;7.80;2.38;;;;;;;;;;4989946;28;20464;-88
2022/07/10 02:17:05;;;;;;;5.07;2.50;;;;;;;;;;4991908;28;20023;-89
2022/07/10 02:19:31;;;;;;;9.15;2.80;;;;;;;;;;4989800;28;20089;-87
2022/07/10 02:21:56;;;;;;;11.45;3.15;;;;;;;;;;4992599;28;20038;-88
2022/07/10 02:24:22;;;;;;;4.53;2.47;;;;;;;;;;4990420;28;20030;-87
2022/07/10 02:26:48;;;;;;;12.23;3.53;;;;;;;;;;4990527;28;20035;-88
2022/07/10 02:29:13;;;;;;;7.07;2.78;;;;;;;;;;4989665;28;20023;-88
2022/07/10 02:31:41;;;;;;;8.60;2.70;;;;;;;;;;4992495;28;20576;-88
2022/07/10 02:34:08;;;;;;;5.20;3.05;;;;;;;;;;4987138;28;20053;-88
2022/07/10 02:36:34;;;;;;;11.05;2.70;;;;;;;;;;4983767;28;20031;-88
2022/07/10 02:38:59;;;;;;;6.95;2.33;;;;;;;;;;4991277;28;20125;-88
2022/07/10 02:41:25;;;;;;;5.35;2.30;;;;;;;;;;4991358;28;20026;-88
2022/07/10 02:43:50;;;;;;;4.20;2.33;;;;;;;;;;4991828;28;20022;-87
2022/07/10 02:46:16;;;;;;;3.35;2.10;;;;;;;;;;4989589;28;20037;-87
2022/07/10 02:48:41;;;;;;;6.38;2.20;;;;;;;;;;4987372;28;20092;-87
2022/07/10 02:51:07;;;;;;;4.85;2.22;;;;;;;;;;4991399;28;20042;-88
2022/07/10 02:53:32;;;;;;;7.75;2.63;;;;;;;;;;4989865;28;20014;-88
2022/07/10 02:55:57;;;;;;;3.95;2.42;;;;;;;;;;4990914;28;20413;-87
2022/07/10 02:58:23;;;;;;;4.28;2.30;;;;;;;;;;4989218;28;20035;-88
2022/07/10 03:00:48;;;;;;;3.60;2.10;;;;;;;;;;4990066;28;20045;-87
2022/07/10 03:03:14;;;;;;;5.00;2.30;;;;;;;;;;4994739;28;20414;-88
2022/07/10 03:05:39;;;;;;;4.93;2.30;;;;;;;;;;4990601;28;20124;-87
2022/07/10 03:08:04;;;;;;;4.75;2.30;;;;;;;;;;4990428;28;20030;-87
2022/07/10 03:10:30;;;;;;;3.65;2.17;;;;;;;;;;4989359;28;20046;-86
2022/07/10 03:12:55;;;;;;;6.63;2.17;;;;;;;;;;4988950;28;20043;-86
2022/07/10 03:15:20;;;;;;;4.97;2.47;;;;;;;;;;4989857;28;20089;-87
2022/07/10 03:17:46;;;;;;;4.30;2.35;;;;;;;;;;4986529;28;20050;-87
2022/07/10 03:20:11;;;;;;;4.30;2.45;;;;;;;;;;4987594;28;20034;-86
2022/07/10 03:22:37;;;;;;;6.70;2.30;;;;;;;;;;4992232;28;20050;-87
2022/07/10 03:25:03;;;;;;;3.38;2.10;;;;;;;;;;4984638;28;20078;-88
2022/07/10 03:27:28;;;;;;;4.15;2.45;;;;;;;;;;4985824;28;20042;-85
2022/07/10 03:29:54;;;;;;;4.82;2.35;;;;;;;;;;4988233;28;20038;-86
2022/07/10 03:32:19;;;;;;;4.10;2.28;;;;;;;;;;4988586;28;20030;-86
2022/07/10 03:34:44;;;;;;;5.55;2.42;;;;;;;;;;4985426;28;20042;-87
2022/07/10 03:37:10;;;;;;;3.03;2.10;;;;;;;;;;4985564;28;20044;-86
2022/07/10 03:39:35;;;;;;;4.28;2.40;;;;;;;;;;4990278;28;20070;-86
2022/07/10 03:42:00;;;;;;;5.28;2.20;;;;;;;;;;4987440;28;20042;-86
2022/07/10 03:44:26;;;;;;;4.45;2.55;;;;;;;;;;4988720;28;20473;-86
2022/07/10 03:46:51;;;;;;;5.88;2.55;;;;;;;;;;4984876;28;20022;-86
2022/07/10 03:49:16;;;;;;;6.40;2.38;;;;;;;;;;4984161;28;20943;-86
2022/07/10 03:51:42;;;;;;;3.90;2.58;;;;;;;;;;4991392;28;20505;-86
2022/07/10 03:54:07;;;;;;;5.75;2.58;;;;;;;;;;4986101;28;20042;-87
2022/07/10 03:59:16;;;;;;;5.13;2.40;;;;;;;;;;4984329;28;20092;-88
2022/07/10 04:01:43;;;;;;;3.80;2.55;;;;;;;;;;4987437;28;20091;-86
2022/07/10 04:04:08;;;;;;;4.75;2.83;;;;;;;;;;4983537;28;20100;-86
2022/07/10 04:06:34;;;;;;;4.95;2.47;;;;;;;;;;4986114;28;20045;-86
2022/07/10 04:08:59;;;;;;;6.07;2.75;;;;;;;;;;4983183;28;20031;-85
2022/07/10 04:11:24;;;;;;;3.95;2.42;;;;;;;;;;4981850;28;20025;-85
2022/07/10 04:13:50;;;;;;;5.93;2.65;;;;;;;;;;4983292;28;20026;-85
2022/07/10 04:16:15;;;;;;;6.05;2.97;;;;;;;;;;4985979;28;20034;-86
2022/07/10 04:18:40;;;;;;;3.90;2.58;;;;;;;;;;4988615;28;20049;-86
2022/07/10 04:21:06;;;;;;;4.43;2.42;;;;;;;;;;4983501;28;20124;-86
2022/07/10 04:23:35;;;;;;;6.00;2.63;;;;;;;;;;4988029;28;20028;-87
2022/07/10 04:26:01;;;;;;;4.03;2.47;;;;;;;;;;4990827;28;20019;-85
2022/07/10 04:28:26;;;;;;;4.30;2.50;;;;;;;;;;4981087;28;20418;-86
2022/07/10 04:30:51;;;;;;;5.32;2.72;;;;;;;;;;4986454;28;20041;-87
2022/07/10 04:33:17;;;;;;;5.28;2.42;;;;;;;;;;4986055;28;20038;-86
2022/07/10 04:35:42;;;;;;;5.25;2.50;;;;;;;;;;4985204;28;20050;-87
2022/07/10 04:38:08;;;;;;;6.18;2.90;;;;;;;;;;4985074;28;21025;-87
2022/07/10 04:40:33;;;;;;;5.05;2.55;;;;;;;;;;4990192;28;20765;-87
2022/07/10 04:42:58;;;;;;;5.20;2.70;;;;;;;;;;5004506;28;20038;-87
2022/07/10 04:45:24;;;;;;;4.05;2.35;;;;;;;;;;4986703;28;20045;-87
2022/07/10 04:47:49;;;;;;;3.65;2.50;;;;;;;;;;4988524;28;20026;-87
2022/07/10 04:50:14;;;;;;;4.20;2.70;;;;;;;;;;4985523;28;20528;-87
2022/07/10 04:52:40;;;;;;;4.97;2.38;;;;;;;;;;4990359;28;20093;-87
2022/07/10 04:55:06;;;;;;;5.45;2.83;;;;;;;;;;4991734;28;20066;-86
2022/07/10 04:57:31;;;;;;;5.30;2.55;;;;;;;;;;4984127;28;20110;-87
2022/07/10 04:59:56;;;;;;;6.10;2.65;;;;;;;;;;4989581;28;20117;-86
2022/07/10 05:02:22;;;;;;;5.35;2.50;;;;;;;;;;4984045;28;20033;-87
2022/07/10 05:04:48;;;;;;;3.90;2.50;;;;;;;;;;4988904;28;20094;-87
2022/07/10 05:07:14;;;;;;;5.55;2.50;;;;;;;;;;4988929;28;20039;-88
2022/07/10 05:09:40;;;;;;;7.53;2.85;;;;;;;;;;4993758;28;20030;-86
2022/07/10 05:12:06;;;;;;;5.57;2.75;;;;;;;;;;4988705;28;20038;-88
2022/07/10 05:14:31;;;;;;;6.07;3.20;;;;;;;;;;4999556;28;20026;-89
2022/07/10 05:16:57;;;;;;;8.30;2.97;;;;;;;;;;4997957;28;20516;-90
2022/07/10 05:19:22;;;;;;;4.78;3.00;;;;;;;;;;4986488;28;20031;-90
2022/07/10 05:21:48;;;;;;;6.10;3.00;;;;;;;;;;5008269;28;20062;-89
2022/07/10 05:24:13;;;;;;;5.97;3.08;;;;;;;;;;4991514;28;20042;-90
2022/07/10 05:26:38;;;;;;;8.85;2.75;;;;;;;;;;4994414;28;20172;-90
2022/07/10 05:29:04;;;;;;;7.32;3.00;;;;;;;;;;4990175;28;20117;-90
2022/07/10 05:31:29;;;;;;;5.68;3.17;;;;;;;;;;4993077;28;20038;-91
2022/07/10 05:33:55;;;;;;;6.45;3.28;;;;;;;;;;4990736;28;20148;-90
2022/07/10 05:36:20;;;;;;;5.95;3.05;;;;;;;;;;4994274;28;20260;-87
2022/07/10 05:38:46;;;;;;;9.27;3.53;;;;;;;;;;5007866;28;20041;-91
2022/07/10 05:41:11;;;;;;;6.85;2.83;;;;;;;;;;4992911;28;20026;-90
2022/07/10 05:43:36;;;;;;;4.22;2.58;;;;;;;;;;5007884;28;20057;-91
2022/07/10 05:46:02;;;;;;;4.88;2.50;;;;;;;;;;4989200;28;20339;-89
2022/07/10 05:48:27;;;;;;;7.32;3.10;;;;;;;;;;4991698;28;20041;-89
2022/07/10 05:50:53;;;;;;;5.55;2.58;;;;;;;;;;4993207;28;20802;-90
2022/07/10 05:53:19;;;;;;;4.95;2.53;;;;;;;;;;4993813;28;20026;-88
2022/07/10 05:55:46;;;;;;;5.13;2.45;;;;;;;;;;4990663;28;20044;-89
2022/07/10 05:58:12;;;;;;;7.53;2.55;;;;;;;;;;4988558;28;20034;-88
2022/07/10 06:00:37;;;;;;;4.25;2.83;;;;;;;;;;4990887;28;20022;-85
2022/07/10 06:03:03;;;;;;;4.80;2.15;;;;;;;;;;4988884;28;20036;-90
2022/07/10 06:05:28;;;;;;;6.38;2.33;;;;;;;;;;4987949;28;20047;-88
2022/07/10 06:07:54;;;;;;;4.30;2.38;;;;;;;;;;4989365;28;20024;-87
2022/07/10 06:10:19;;;;;;;5.20;2.30;;;;;;;;;;4992673;28;20054;-87
2022/07/10 06:12:44;;;;;;;4.75;2.00;;;;;;;;;;4989137;28;20528;-86
2022/07/10 06:15:10;;;;;;;3.47;2.10;;;;;;;;;;4992080;28;20037;-90
2022/07/10 06:17:36;;;;;;;4.68;2.10;;;;;;;;;;4990188;28;20018;-92
2022/07/10 06:20:04;;;;;;;6.60;2.10;;;;;;;;;;4989007;28;20030;-90
2022/07/10 06:22:30;;;;;;;3.78;2.05;;;;;;;;;;4985742;28;20031;-90
2022/07/10 06:24:56;;;;;;;4.45;1.88;;;;;;;;;;4983748;28;20038;-88
2022/07/10 06:27:22;;;;;;;3.60;1.80;;;;;;;;;;4985342;28;20039;-89
2022/07/10 06:29:47;;;;;;;5.70;1.95;;;;;;;;;;4982924;28;20034;-89
2022/07/10 06:32:12;;;;;;;4.80;2.13;;;;;;;;;;4993899;28;20042;-90
2022/07/10 06:34:38;;;;;;;6.43;1.73;;;;;;;;;;4987092;28;20042;-88
2022/07/10 06:37:03;;;;;;;2.58;1.60;;;;;;;;;;4985362;28;20174;-86
2022/07/10 06:39:35;;;;;;;4.47;1.73;;;;;;;;;;4985079;28;20484;-88
2022/07/10 06:42:05;;;;;;;5.47;1.60;;;;;;;;;;4983047;28;20030;-85
2022/07/10 06:44:31;;;;;;;2.65;1.65;;;;;;;;;;4982689;28;20057;-86
2022/07/10 06:49:42;;;;;;;4.82;1.50;;;;;;;;;;4981158;28;20081;-86
2022/07/10 06:52:08;;;;;;;5.38;1.90;;;;;;;;;;4982932;28;20031;-87
2022/07/10 06:54:33;;;;;;;2.33;1.52;;;;;;;;;;4982991;28;20131;-86
2022/07/10 06:56:59;;;;;;;2.15;1.48;;;;;;;;;;4985308;28;20051;-88
2022/07/10 06:59:24;;;;;;;3.47;1.80;;;;;;;;;;4985625;28;20125;-85
2022/07/10 07:01:50;;;;;;;2.20;1.70;;;;;;;;;;4984464;28;20121;-85
2022/07/10 07:04:15;;;;;;;10.23;2.22;;;;;;;;;;4981661;28;20050;-87
2022/07/10 07:06:40;;;;;;;5.28;2.50;;;;;;;;;;4983516;28;20425;-84
2022/07/10 07:09:06;;;;;;;2.10;1.60;;;;;;;;;;4984734;28;20112;-84
2022/07/10 07:11:31;;;;;;;4.70;1.60;;;;;;;;;;4980137;28;20026;-85
2022/07/10 07:13:56;;;;;;;5.03;1.90;;;;;;;;;;4978224;28;20026;-86
2022/07/10 07:16:37;;;;;;;3.00;1.60;;;;;;;;;;4980355;28;20812;-85
2022/07/10 07:19:04;;;;;;;3.30;1.52;;;;;;;;;;4982008;28;20042;-84
2022/07/10 07:24:14;;;;;;;1.83;1.35;;;;;;;;;;4982076;28;20429;-85
2022/07/10 07:26:39;;;;;;;4.70;1.50;;;;;;;;;;4983569;28;20665;-85
2022/07/10 07:29:04;;;;;;;3.72;1.65;;;;;;;;;;4980951;28;20513;-84
2022/07/10 07:31:30;;;;;;;2.50;1.70;;;;;;;;;;4997835;28;20042;-83
2022/07/10 07:33:55;;;;;;;6.38;1.80;;;;;;;;;;4980498;28;20035;-85
2022/07/10 07:36:20;;;;;;;9.75;1.83;;;;;;;;;;4981223;28;20042;-85
2022/07/10 07:38:46;;;;;;;4.00;1.70;;;;;;;;;;4983747;28;20132;-83
2022/07/10 07:41:11;;;;;;;2.10;1.50;;;;;;;;;;4984352;28;20172;-84
2022/07/10 07:43:37;;;;;;;2.85;1.50;;;;;;;;;;4982454;28;20038;-83
2022/07/10 07:46:02;;;;;;;5.32;1.70;;;;;;;;;;4982484;28;20042;-83
2022/07/10 07:48:27;;;;;;;2.17;1.50;;;;;;;;;;5003855;28;20767;-86
2022/07/10 07:50:53;;;;;;;3.35;1.77;;;;;;;;;;4981141;28;20061;-85
2022/07/10 07:53:18;;;;;;;6.75;1.67;;;;;;;;;;4989301;28;20034;-85
2022/07/10 07:55:43;;;;;;;6.90;1.60;;;;;;;;;;4987582;28;20038;-84
2022/07/10 07:58:09;;;;;;;6.25;1.83;;;;;;;;;;4986770;28;20045;-84
2022/07/10 08:00:34;;;;;;;4.55;1.65;;;;;;;;;;4988763;28;20030;-86
2022/07/10 08:03:00;;;;;;;2.58;1.80;;;;;;;;;;4985219;28;20048;-86
2022/07/10 08:05:26;;;;;;;2.78;1.33;;;;;;;;;;4987323;28;20070;-89
2022/07/10 08:07:57;;;;;;;3.45;1.55;;;;;;;;;;4989863;28;20010;-85
2022/07/10 08:10:24;;;;;;;2.22;1.50;;;;;;;;;;4987977;28;20026;-87
2022/07/10 08:12:49;;;;;;;2.65;1.65;;;;;;;;;;4987022;28;20053;-85
2022/07/10 08:15:16;;;;;;;2.97;2.08;;;;;;;;;;4982985;28;20031;-84
2022/07/10 08:17:42;;;;;;;4.03;1.50;;;;;;;;;;4986706;28;20588;-86
2022/07/10 08:20:11;;;;;;;3.70;1.80;;;;;;;;;;4984296;28;20038;-85
2022/07/10 08:22:37;;;;;;;3.53;1.48;;;;;;;;;;4976862;28;20030;-84
2022/07/10 08:25:02;;;;;;;2.35;1.50;;;;;;;;;;5000236;28;20088;-84
2022/07/10 08:27:28;;;;;;;4.88;1.55;;;;;;;;;;4979894;28;20085;-84
2022/07/10 08:29:53;;;;;;;3.67;1.55;;;;;;;;;;4995516;28;20091;-85
2022/07/10 08:32:19;;;;;;;1.52;1.20;;;;;;;;;;5006509;28;20088;-84
2022/07/10 08:34:44;;;;;;;6.15;1.60;;;;;;;;;;4985405;28;20042;-85
2022/07/10 08:37:10;;;;;;;5.45;1.77;;;;;;;;;;4984532;28;20066;-84
2022/07/10 08:39:35;;;;;;;3.95;1.40;;;;;;;;;;4983827;28;20037;-84
2022/07/10 08:42:02;;;;;;;2.70;1.52;;;;;;;;;;4985082;28;20501;-87
2022/07/10 08:44:29;;;;;;;3.92;1.52;;;;;;;;;;4984506;28;20022;-85
2022/07/10 08:46:54;;;;;;;3.45;1.90;;;;;;;;;;4979981;28;20033;-86
2022/07/10 08:49:25;;;;;;;7.40;1.90;;;;;;;;;;4978832;28;20040;-85
2022/07/10 08:52:11;;;;;;;6.63;1.80;;;;;;;;;;4982834;28;20134;-84
2022/07/10 08:54:38;;;;;;;4.55;1.92;;;;;;;;;;4984436;28;20057;-85
2022/07/10 08:57:05;;;;;;;3.03;1.50;;;;;;;;;;4982322;28;20043;-84
2022/07/10 08:59:31;;;;;;;5.13;1.52;;;;;;;;;;4980946;28;20557;-84
2022/07/10 09:01:57;;;;;;;2.78;1.52;;;;;;;;;;4979325;28;20432;-85
2022/07/10 09:04:25;;;;;;;4.55;1.58;;;;;;;;;;4966300;28;20061;-85
2022/07/10 09:06:51;;;;;;;4.20;1.60;;;;;;;;;;4978950;28;20031;-84
2022/07/10 09:09:17;;;;;;;5.38;2.00;;;;;;;;;;4982030;28;20035;-84
2022/07/10 09:11:42;;;;;;;3.05;1.35;;;;;;;;;;4985761;28;20036;-86
2022/07/10 09:14:11;;;;;;;6.10;1.40;;;;;;;;;;4982261;28;20398;-83
2022/07/10 09:16:39;;;;;;;3.03;1.70;;;;;;;;;;4983311;28;20031;-86
2022/07/10 09:19:28;;;;;;;2.33;1.67;;;;;;;;;;4982104;28;20042;-84
2022/07/10 09:21:59;;;;;;;4.03;1.80;;;;;;;;;;4973515;28;20039;-85
2022/07/10 09:24:25;;;;;;;3.10;1.80;;;;;;;;;;4978914;28;20039;-83
2022/07/10 09:26:56;;;;;;;6.13;2.00;;;;;;;;;;4987247;28;20042;-83
2022/07/10 09:29:22;;;;;;;2.15;1.33;;;;;;;;;;4989125;28;20080;-87
2022/07/10 09:31:52;;;;;;;3.22;1.58;;;;;;;;;;4984698;28;20127;-87
2022/07/10 09:34:18;;;;;;;2.28;1.50;;;;;;;;;;4985728;28;20031;-85
2022/07/10 09:36:43;;;;;;;3.38;1.63;;;;;;;;;;4988094;28;20073;-87
2022/07/10 09:39:09;;;;;;;2.25;1.60;;;;;;;;;;4984730;28;20121;-87
2022/07/10 09:41:35;;;;;;;6.63;1.80;;;;;;;;;;4985625;28;20157;-85
2022/07/10 09:44:03;;;;;;;2.72;1.50;;;;;;;;;;4986128;28;20030;-87
2022/07/10 09:46:33;;;;;;;3.33;1.67;;;;;;;;;;4983855;28;20121;-86
2022/07/10 09:49:03;;;;;;;2.88;1.45;;;;;;;;;;4982264;28;20429;-85
2022/07/10 09:51:34;;;;;;;4.38;1.65;;;;;;;;;;4983701;28;20065;-86
2022/07/10 09:54:07;;;;;;;1.90;1.30;;;;;;;;;;4990624;28;20034;-87
2022/07/10 09:56:43;;;;;;;9.80;1.80;;;;;;;;;;4980319;28;20022;-84
2022/07/10 09:59:19;;;;;;;3.15;1.80;;;;;;;;;;4987804;28;20027;-85
2022/07/10 10:01:49;;;;;;;4.80;1.80;;;;;;;;;;4992114;28;20121;-85
2022/07/10 10:04:18;;;;;;;2.70;1.65;;;;;;;;;;4985576;28;20476;-85
2022/07/10 10:06:46;;;;;;;2.83;1.42;;;;;;;;;;4983594;28;20078;-85
2022/07/10 10:09:21;;;;;;;4.78;1.90;;;;;;;;;;4982332;28;20042;-84
2022/07/10 10:11:49;;;;;;;2.22;1.50;;;;;;;;;;4980858;28;20114;-83
2022/07/10 10:14:21;;;;;;;4.13;1.70;;;;;;;;;;4984615;28;20070;-85
2022/07/10 10:16:47;;;;;;;3.22;1.60;;;;;;;;;;4985856;28;20042;-86
2022/07/10 10:22:19;;;;;;;4.20;2.38;;;;;;;;;;4957477;28;20042;-84
2022/07/10 10:24:45;;;;;;;3.42;1.60;;;;;;;;;;4948187;28;20109;-84
2022/07/10 10:27:11;;;;;;;4.70;1.80;;;;;;;;;;4966154;28;20043;-84
2022/07/10 10:29:37;;;;;;;4.53;1.40;;;;;;;;;;4984733;28;20037;-86
2022/07/10 10:32:03;;;;;;;3.35;1.52;;;;;;;;;;4989146;28;20121;-87
2022/07/10 10:34:42;;;;;;;2.25;1.48;;;;;;;;;;4987471;28;20327;-86
2022/07/10 10:37:39;;;;;;;2.92;1.60;;;;;;;;;;4986391;28;20042;-85
2022/07/10 10:40:06;;;;;;;3.10;1.27;;;;;;;;;;4980865;28;20540;-86
2022/07/10 10:42:38;;;;;;;3.72;1.40;;;;;;;;;;4984664;28;20038;-86
2022/07/10 10:45:29;;;;;;;3.30;1.60;;;;;;;;;;4985807;28;20407;-86
2022/07/10 10:47:59;;;;;;;2.78;1.65;;;;;;;;;;4985946;28;20042;-87
2022/07/10 10:50:49;;;;;;;2.42;1.80;;;;;;;;;;4980381;28;20026;-85
2022/07/10 10:53:21;;;;;;;3.85;1.70;;;;;;;;;;4980038;28;20046;-86
2022/07/10 10:56:07;;;;;;;2.45;1.20;;;;;;;;;;4982266;28;20197;-85
2022/07/10 10:58:37;;;;;;;2.90;1.48;;;;;;;;;;4980930;28;20042;-85
2022/07/10 11:01:24;;;;;;;2.63;1.40;;;;;;;;;;4985798;28;20038;-88
2022/07/10 11:04:04;;;;;;;3.67;1.50;;;;;;;;;;4988879;28;20046;-89
2022/07/10 11:06:51;;;;;;;4.88;1.42;;;;;;;;;;4989994;28;20042;-91
2022/07/10 11:09:28;;;;;;;4.28;1.88;;;;;;;;;;4990365;28;20031;-88
2022/07/10 11:12:08;;;;;;;1.88;1.30;;;;;;;;;;4985512;28;20105;-91
2022/07/10 11:14:36;;;;;;;1.95;1.48;;;;;;;;;;4991869;28;20037;-90
2022/07/10 11:17:02;;;;;;;3.90;1.50;;;;;;;;;;4990826;28;20014;-91
2022/07/10 11:19:29;;;;;;;3.40;1.23;;;;;;;;;;4988882;28;20041;-86
2022/07/10 11:22:10;;;;;;;3.97;1.40;;;;;;;;;;4981400;28;20072;-89
2022/07/10 11:24:47;;;;;;;1.75;1.30;;;;;;;;;;4984061;28;20093;-86
2022/07/10 11:27:39;;;;;;;3.00;1.63;;;;;;;;;;4985994;28;20034;-86
2022/07/10 11:30:05;;;;;;;2.78;1.60;;;;;;;;;;4983993;28;20049;-89
2022/07/10 11:32:30;;;;;;;2.65;1.40;;;;;;;;;;4990743;28;20019;-92
2022/07/10 11:34:57;;;;;;;1.40;1.25;;;;;;;;;;4989799;28;20107;-89
2022/07/10 11:37:25;;;;;;;6.45;1.80;;;;;;;;;;4990239;28;20042;-89
2022/07/10 11:39:50;;;;;;;2.70;1.55;;;;;;;;;;4991237;28;20045;-87
2022/07/10 11:42:16;;;;;;;1.73;1.23;;;;;;;;;;4986970;28;20034;-91
2022/07/10 11:44:41;;;;;;;2.78;1.50;;;;;;;;;;4989445;28;20030;-91
2022/07/10 11:47:07;;;;;;;2.75;1.58;;;;;;;;;;4989622;28;20524;-90
2022/07/10 11:49:34;;;;;;;3.65;1.40;;;;;;;;;;4987995;28;20064;-86
2022/07/10 11:52:03;;;;;;;3.55;1.40;;;;;;;;;;4993716;28;20053;-93
2022/07/10 11:54:29;;;;;;;1.95;1.35;;;;;;;;;;4991359;28;20480;-90
2022/07/10 11:56:55;;;;;;;2.40;1.70;;;;;;;;;;4988601;28;20038;-87
2022/07/10 11:59:25;;;;;;;3.10;1.65;;;;;;;;;;4984067;28;20092;-89
2022/07/10 12:01:52;;;;;;;3.92;1.60;;;;;;;;;;4984470;28;20402;-87
2022/07/10 12:04:24;;;;;;;2.42;1.60;;;;;;;;;;4970194;28;20046;-85
2022/07/10 12:06:50;;;;;;;2.50;1.60;;;;;;;;;;4985592;28;20125;-86
2022/07/10 12:09:18;;;;;;;2.67;1.45;;;;;;;;;;4985141;28;20513;-88
2022/07/10 12:11:57;;;;;;;2.70;1.80;;;;;;;;;;4988856;28;20030;-83
2022/07/10 12:14:22;;;;;;;4.82;1.63;;;;;;;;;;4982740;28;20034;-86
2022/07/10 12:16:51;;;;;;;1.77;1.27;;;;;;;;;;4986672;28;20038;-87
2022/07/10 12:19:19;;;;;;;3.63;1.55;;;;;;;;;;4988414;28;20609;-84
2022/07/10 12:21:46;;;;;;;1.75;1.58;;;;;;;;;;4991033;28;20058;-87
2022/07/10 12:24:15;;;;;;;1.50;1.40;;;;;;;;;;4981040;28;20073;-86
2022/07/10 12:26:42;;;;;;;2.97;1.60;;;;;;;;;;4975568;28;20045;-86
2022/07/10 12:29:29;;;;;;;2.65;1.60;;;;;;;;;;4970227;28;20757;-89
2022/07/10 12:31:56;;;;;;;2.15;1.50;;;;;;;;;;4971947;28;20074;-91
2022/07/10 12:34:39;;;;;;;1.83;1.48;;;;;;;;;;4970691;28;20493;-87
2022/07/10 12:37:09;;;;;;;2.00;1.52;;;;;;;;;;4976701;28;20062;-88
2022/07/10 12:39:37;;;;;;;1.70;1.50;;;;;;;;;;5020122;28;20042;-85
2022/07/10 12:42:05;;;;;;;2.53;1.33;;;;;;;;;;4984737;28;20041;-90
2022/07/10 12:44:30;;;;;;;4.10;1.50;;;;;;;;;;4987340;28;20033;-89
2022/07/10 12:47:13;;;;;;;2.60;1.40;;;;;;;;;;4991458;28;20023;-93
2022/07/10 12:50:02;;;;;;;2.58;1.35;;;;;;;;;;4989456;28;20109;-88
2022/07/10 12:52:32;;;;;;;2.83;1.27;;;;;;;;;;4978795;28;20053;-92
2022/07/10 12:55:21;;;;;;;2.78;1.45;;;;;;;;;;4989693;28;20038;-95
2022/07/10 12:58:04;;;;;;;3.13;1.60;;;;;;;;;;4984997;28;20050;-94
2022/07/10 13:00:34;;;;;;;3.88;1.60;;;;;;;;;;4984442;28;20062;-89
2022/07/10 13:03:04;;;;;;;2.05;1.30;;;;;;;;;;4979892;28;20053;-90
2022/07/10 13:05:32;;;;;;;1.70;1.13;;;;;;;;;;4990097;28;20050;-91
2022/07/10 13:08:10;;;;;;;2.88;1.27;;;;;;;;;;4996959;28;20038;-91
2022/07/10 13:10:36;;;;;;;2.95;1.40;;;;;;;;;;4985255;28;20026;-91
2022/07/10 13:13:05;;;;;;;2.75;1.30;;;;;;;;;;4995826;28;20034;-92
2022/07/10 13:15:31;;;;;;;2.15;1.35;;;;;;;;;;4986001;28;20087;-92
2022/07/10 13:17:57;;;;;;;1.85;1.10;;;;;;;;;;4990608;28;20034;-92
2022/07/10 13:20:23;;;;;;;1.73;1.50;;;;;;;;;;4992595;28;20245;-90
2022/07/10 13:22:49;;;;;;;2.85;1.60;;;;;;;;;;4993842;28;20605;-92
2022/07/10 13:25:14;;;;;;;3.20;1.35;;;;;;;;;;4987212;28;20048;-91
2022/07/10 13:27:41;;;;;;;5.20;1.77;;;;;;;;;;4996577;28;20037;-92
2022/07/10 13:30:07;;;;;;;4.25;1.65;;;;;;;;;;4992285;28;20034;-93
2022/07/10 13:32:33;;;;;;;2.03;1.40;;;;;;;;;;4990292;28;20080;-92
2022/07/10 13:34:59;;;;;;;2.33;1.60;;;;;;;;;;4995499;28;20026;-91
2022/07/10 13:37:26;;;;;;;2.65;1.27;;;;;;;;;;4999198;28;20038;-94
2022/07/10 13:39:57;;;;;;;2.25;1.67;;;;;;;;;;4998026;28;20457;-95
2022/07/10 13:42:22;;;;;;;3.22;1.40;;;;;;;;;;4999369;28;20022;-92
2022/07/10 13:44:47;;;;;;;2.47;1.75;;;;;;;;;;4994569;28;20035;-88
2022/07/10 13:47:13;;;;;;;1.73;1.40;;;;;;;;;;4992114;28;20015;-86
2022/07/10 13:49:38;;;;;;;1.92;1.30;;;;;;;;;;4981352;28;20035;-91
2022/07/10 13:52:04;;;;;;;1.20;1.10;;;;;;;;;;4989441;28;20049;-89
2022/07/10 13:54:29;;;;;;;4.13;1.63;;;;;;;;;;4995086;28;20512;-91
2022/07/10 13:56:54;;;;;;;2.70;1.30;;;;;;;;;;4987554;28;20433;-89
2022/07/10 13:59:20;;;;;;;2.00;1.30;;;;;;;;;;4985526;28;20055;-88
2022/07/10 14:01:45;;;;;;;2.50;1.40;;;;;;;;;;4991946;28;20134;-86
2022/07/10 14:04:11;;;;;;;2.42;1.30;;;;;;;;;;4988476;28;20069;-86
2022/07/10 14:06:40;;;;;;;1.58;1.35;;;;;;;;;;4988919;28;20038;-93
2022/07/10 14:09:05;;;;;;;1.90;1.20;;;;;;;;;;4987703;28;20509;-89
2022/07/10 14:11:32;;;;;;;2.20;1.20;;;;;;;;;;4990537;28;20053;-89
2022/07/10 14:13:58;;;;;;;1.85;1.35;;;;;;;;;;4989281;28;20030;-89
2022/07/10 14:16:23;;;;;;;4.00;1.25;;;;;;;;;;5002868;28;20037;-87
2022/07/10 14:18:48;;;;;;;1.90;1.13;;;;;;;;;;4989467;28;20041;-85
2022/07/10 14:21:14;;;;;;;1.77;1.10;;;;;;;;;;4995028;28;20030;-92
2022/07/10 14:23:42;;;;;;;1.08;0.98;;;;;;;;;;4989950;28;20564;-87
2022/07/10 14:26:08;;;;;;;1.40;1.10;;;;;;;;;;4992448;28;20085;-91
2022/07/10 14:28:36;;;;;;;1.45;1.00;;;;;;;;;;4993536;28;20030;-91
2022/07/10 14:31:03;;;;;;;1.63;1.17;;;;;;;;;;4992287;28;20058;-88
2022/07/10 14:33:30;;;;;;;1.20;1.10;;;;;;;;;;4985918;28;20121;-89
2022/07/10 14:35:56;;;;;;;3.70;1.40;;;;;;;;;;4984895;28;20069;-85
2022/07/10 14:38:21;;;;;;;1.20;1.10;;;;;;;;;;4987400;28;20034;-88
2022/07/10 14:40:47;;;;;;;2.53;1.40;;;;;;;;;;4981051;28;20038;-90
2022/07/10 14:43:12;;;;;;;2.65;1.17;;;;;;;;;;4980578;28;20042;-89
2022/07/10 14:45:37;;;;;;;3.13;1.30;;;;;;;;;;4986377;28;20088;-85
2022/07/10 14:48:03;;;;;;;1.60;1.15;;;;;;;;;;4990353;28;20041;-86
2022/07/10 14:50:29;;;;;;;2.30;1.20;;;;;;;;;;4987419;28;20022;-94
2022/07/10 14:52:54;;;;;;;1.15;0.93;;;;;;;;;;4990453;28;20558;-91
2022/07/10 14:55:19;;;;;;;3.08;1.23;;;;;;;;;;4986717;28;20042;-91